»·PEaware :: N145VF KAPA-KGJT

N145VF :: KAPA-KGJT

FLIGHT INFORMATION

Flight Status: Arrived
Operator: Privately registered:
United States
More flights under this callsign
Pilot: Adam K. (2650)
Aircraft: Unknown
(VIPJ)
More flights by this aircraft type
Origin: KAPA Centennial
United States
Destination: KGJT Walker
United States
More flights between these airports :: More routes between these airports
Route: CONNR BULDG DBL JNC
File this flight plan on PilotEdge
Remarks:
Altitude:
(Current/Filed)
16,500ft
Speed:
(Current/Filed)
420kts
Departed: 10-Aug-17 05:44 PM
Arrived: 10-Aug-17 06:38 PM
Distance/Time
Traveled:
173nm/0:53
Distance/Time
To Go:
Arrived

Flight Plot

Page will automatically refresh every two minutes.

Flight plan parsing failed; only flown route is shown


Map Options




Map Legend


Flown Route
Filed Route
Departure Airport
Arrival Airport
Navaid (VOR, NDB)
Fix

Horizontal Profiles

Position Reports

Time Latitude Longitude Heading Altitude Ground
Speed
10-Aug-17 17:38 39.568204 -104.848101 359 5886ft 0kts
10-Aug-17 17:39 39.568204 -104.848101 359 5886ft 0kts
10-Aug-17 17:40 39.568204 -104.848101 359 5886ft 0kts
10-Aug-17 17:41 39.568204 -104.848101 359 5886ft 0kts
10-Aug-17 17:42 39.568635 -104.849154 261 5886ft 16kts
10-Aug-17 17:43 39.566357 -104.849249 177 5886ft 14kts
10-Aug-17 17:44 39.560847 -104.849043 174 5886ft 26kts
10-Aug-17 17:45 39.556836 -104.848991 240 5886ft 0kts
10-Aug-17 17:46 39.556798 -104.849891 282 5886ft 11kts
10-Aug-17 17:47 39.579071 -104.850967 357 6275ft 168kts
10-Aug-17 17:48 39.636760 -104.858853 322 6919ft 230kts
10-Aug-17 17:49 39.668142 -104.937555 297 7004ft 279kts
10-Aug-17 17:50 39.699425 -105.019843 296 7000ft 261kts
10-Aug-17 17:51 39.723491 -105.085181 296 8882ft 184kts
10-Aug-17 17:52 39.750573 -105.155028 297 11544ft 279kts
10-Aug-17 17:53 39.759469 -105.245593 262 16133ft 275kts
10-Aug-17 17:54 39.743401 -105.361005 261 16547ft 391kts
10-Aug-17 17:55 39.723056 -105.501320 261 16594ft 368kts
10-Aug-17 17:56 39.704900 -105.625948 261 16515ft 360kts
10-Aug-17 17:57 39.690413 -105.744717 263 16541ft 355kts
10-Aug-17 17:58 39.678736 -105.850205 263 16563ft 353kts
10-Aug-17 17:59 39.666949 -105.955910 263 16570ft 352kts
10-Aug-17 18:00 39.653400 -106.076323 263 16576ft 352kts
10-Aug-17 18:01 39.639214 -106.201229 263 16614ft 370kts
10-Aug-17 18:02 39.620853 -106.329483 251 16621ft 375kts
10-Aug-17 18:03 39.582230 -106.451776 250 16558ft 376kts
10-Aug-17 18:04 39.542866 -106.574506 250 16474ft 377kts
10-Aug-17 18:05 39.503677 -106.696135 249 16483ft 376kts
10-Aug-17 18:06 39.472658 -106.820178 257 16490ft 374kts
10-Aug-17 18:07 39.447503 -106.945387 257 16498ft 374kts
10-Aug-17 18:08 39.421957 -107.072113 257 16513ft 376kts
10-Aug-17 18:09 39.396264 -107.198798 257 16526ft 377kts
10-Aug-17 18:10 39.370405 -107.325518 257 16525ft 377kts
10-Aug-17 18:11 39.344269 -107.452822 257 16458ft 379kts
10-Aug-17 18:12 39.319997 -107.570217 257 15623ft 313kts
10-Aug-17 18:13 39.295091 -107.690369 256 15657ft 386kts
10-Aug-17 18:14 39.267742 -107.821150 256 15612ft 370kts
10-Aug-17 18:15 39.242810 -107.939908 256 14009ft 355kts
10-Aug-17 18:16 39.194085 -108.043914 239 13536ft 346kts
10-Aug-17 18:17 39.166795 -108.147491 260 13564ft 296kts
10-Aug-17 18:18 39.150284 -108.248612 260 13134ft 305kts
10-Aug-17 18:19 39.133144 -108.352537 260 11488ft 293kts
10-Aug-17 18:20 39.117950 -108.444316 260 11521ft 251kts
10-Aug-17 18:21 39.102825 -108.530001 268 11471ft 256kts
10-Aug-17 18:22 39.111475 -108.614908 246 11475ft 251kts
10-Aug-17 18:23 39.084141 -108.688707 251 11498ft 231kts
10-Aug-17 18:24 39.061945 -108.762631 251 11502ft 227kts
10-Aug-17 18:25 39.039465 -108.837371 251 11502ft 230kts
10-Aug-17 18:26 39.016988 -108.911904 251 11500ft 229kts
10-Aug-17 18:27 38.994390 -108.986655 251 11498ft 228kts
10-Aug-17 18:28 38.989422 -109.060104 319 10708ft 229kts
10-Aug-17 18:29 39.047224 -109.077647 354 8781ft 217kts
10-Aug-17 18:30 39.104045 -109.072392 9 8197ft 211kts
10-Aug-17 18:31 39.157861 -109.048695 23 8197ft 211kts
10-Aug-17 18:32 39.205429 -109.007840 37 8202ft 212kts
10-Aug-17 18:33 39.243674 -108.951891 51 8202ft 215kts
10-Aug-17 18:34 39.269629 -108.884220 66 8202ft 219kts
10-Aug-17 18:35 39.269367 -108.808168 98 8202ft 227kts
10-Aug-17 18:36 39.241442 -108.739546 120 8157ft 211kts
10-Aug-17 18:37 39.209117 -108.679691 119 7256ft 197kts
10-Aug-17 18:38 39.182269 -108.630607 117 6355ft 150kts
10-Aug-17 18:39 39.161643 -108.592978 116 5718ft 125kts
10-Aug-17 18:40 39.142447 -108.557965 114 5125ft 121kts
10-Aug-17 18:41 39.130660 -108.530242 37 4861ft 27kts
10-Aug-17 18:42 39.130858 -108.529955 81 4861ft 0kts

Navigation Log

Ident Type
Flight plan parsing failed, navigation log unavailable